ADDS METAR Data INFO
IDs: Format: Raw Decoded Include TAF

Data at: 0903 UTC 20 Oct 2017

KSUN 200855Z AUTO 32006KT 10SM CLR 04/M06 A2964 RMK AO2
KSUN 200835Z AUTO 31007KT 10SM CLR 03/M06 A2965 RMK AO2
KSUN 200815Z AUTO 32008KT 10SM CLR 03/M05 A2966 RMK AO2
KSUN 200755Z AUTO 32005KT 10SM CLR 04/M06 A2967 RMK AO2
KSUN 200735Z AUTO 32005KT 10SM CLR 04/M06 A2967 RMK AO2
KSUN 200715Z AUTO 31006KT 10SM CLR 03/M06 A2969 RMK AO2
KSUN 200655Z AUTO 32007KT 10SM CLR 04/M06 A2970 RMK AO2
KSUN 200635Z AUTO 32006KT 10SM CLR 04/M06 A2971 RMK AO2
KSUN 200615Z AUTO 32004KT 10SM CLR 05/M06 A2972 RMK AO2
KSUN 200555Z AUTO 33003KT 10SM CLR 05/M06 A2972 RMK AO2
KSUN 200535Z AUTO 33004KT 10SM CLR 05/M06 A2972 RMK AO2
KSUN 200515Z AUTO 31005KT 10SM CLR 05/M06 A2972 RMK AO2
KSUN 200447Z 30006KT 10SM SCT100 07/M06 A2972
KSUN 200355Z 31008KT 10SM SCT100 07/M07 A2974
KSUN 200247Z 31008KT 10SM SCT100 09/M06 A2975
KSUN 200150Z 31006KT 10SM SCT100 11/M06 A2977
KSUN 200047Z 00000KT 10SM SCT100 15/M07 A2978
KSUN 192355Z 18005KT 10SM SKC 17/M07 A2980
KSUN 192247Z 13009KT 10SM SKC 19/M06 A2983
KSUN 192148Z 16009KT 10SM SKC 19/M04 A2985
KSUN 192050Z 10006KT 10SM SKC 18/M05 A2988
KSUN 191958Z 10009KT 10SM SKC 18/M04 A2990
KSUN 191858Z 13009KT 10SM SKC 17/M05 A2993
KSUN 191747Z 32006KT 10SM SKC 13/M04 A2996
KSUN 191647Z 30010KT 10SM FEW140 09/M04 A2999
KSUN 191550Z 30010KT 10SM SKC 06/M04 A3001
KSUN 191453Z 30010KT 10SM SKC 03/M04 A3001
KSUN 191348Z 30011KT 10SM FEW150 02/M04 A3001
KSUN 191250Z 30010G18KT 10SM SKC 02/M04 A3002
KSUN 191235Z AUTO 32011G15KT 10SM CLR 02/M04 A3003 RMK AO2
KSUN 191215Z AUTO 31011KT 10SM CLR 02/M04 A3003 RMK AO2
KSUN 191155Z AUTO 31010KT 10SM CLR 02/M03 A3003 RMK AO2
KSUN 191135Z AUTO 31010KT 10SM CLR 02/M03 A3003 RMK AO2
KSUN 191115Z AUTO 32010KT 10SM CLR 02/M03 A3003 RMK AO2
KSUN 191055Z AUTO 32011G17KT 10SM CLR 03/M03 A3003 RMK AO2
KSUN 191035Z AUTO 31011KT 10SM CLR 02/M03 A3003 RMK AO2
KSUN 191015Z AUTO 31010KT 10SM CLR 02/M03 A3003 RMK AO2
KSUN 190955Z AUTO 31010G15KT 10SM CLR 03/M03 A3004 RMK AO2
KSUN 190935Z AUTO 31011KT 10SM CLR 03/M03 A3004 RMK AO2
KSUN 190915Z AUTO 32010KT 10SM CLR 03/M03 A3004 RMK AO2
KSUN 190855Z AUTO 32009KT 10SM CLR 03/M03 A3005 RMK AO2
KSUN 190840Z AUTO 32009KT 10SM CLR 03/M03 A3005 RMK AO2
KSUN 190815Z AUTO 31011KT 10SM CLR 03/M03 A3005 RMK AO2
KSUN 190755Z AUTO 32008KT 10SM CLR 04/M03 A3006 RMK AO2
KSUN 190735Z AUTO 32010G14KT 10SM CLR 04/M03 A3006 RMK AO2
KSUN 190715Z AUTO 32008KT 10SM CLR 04/M02 A3007 RMK AO2
KSUN 190655Z AUTO 32009KT 10SM CLR 05/M02 A3008 RMK AO2
KSUN 190635Z AUTO 31008KT 10SM CLR 05/M02 A3009 RMK AO2
KSUN 190615Z AUTO 31009KT 10SM CLR 05/M02 A3009 RMK AO2
KSUN 190555Z AUTO 31008KT 10SM CLR 05/M02 A3010 RMK AO2
KSUN 190535Z AUTO 31008KT 10SM CLR 05/M02 A3010 RMK AO2
KSUN 190515Z AUTO 31006KT 10SM CLR 06/M02 A3010 RMK AO2
KSUN 190447Z 29008KT 10SM SKC 07/M02 A3009
KSUN 190352Z 28007KT 10SM SKC 08/M03 A3009
KSUN 190247Z 28007KT 10SM SKC 08/M02 A3010
KSUN 190152Z 29006KT 10SM SKC 11/M03 A3010
KSUN 190047Z 00000KT 10SM SKC 14/M03 A3010
KSUN 182348Z 16005KT 10SM SKC 17/M03 A3011
KSUN 182247Z 16005KT 10SM SKC 18/M02 A3012
KSUN 182147Z 21008KT 10SM FEW140 19/M01 A3013